METAR Data
IDs: Format: Raw Decoded Include TAF

Data at: 1351 UTC 26 Feb 2021

EKKA 261320Z AUTO 30020KT 9999 BKN013/// 07/04 Q1027